createdAt,value
2022-10-03T04:05:00.954Z,7.38
2022-10-03T04:07:42.519Z,8.40
2022-10-03T04:10:25.674Z,11.63
2022-10-03T04:13:21.461Z,7.90
2022-10-03T04:16:02.918Z,8.15
2022-10-03T04:18:58.671Z,8.77
2022-10-03T04:21:34.416Z,7.63
2022-10-03T04:24:00.864Z,10.48
2022-10-03T04:26:27.338Z,7.68
2022-10-03T04:29:35.550Z,8.27
2022-10-03T04:33:01.337Z,8.15
2022-10-03T04:35:52.995Z,6.78
2022-10-03T04:38:54.594Z,7.53
2022-10-03T04:41:43.018Z,7.10
2022-10-03T04:44:46.533Z,6.28
2022-10-03T04:47:28.172Z,7.88
2022-10-03T04:49:57.645Z,7.32
2022-10-03T04:52:52.229Z,8.38
2022-10-03T04:55:35.365Z,8.20
2022-10-03T04:58:38.747Z,8.90
2022-10-03T05:01:08.324Z,7.95
2022-10-03T05:03:56.154Z,7.03
2022-10-03T05:06:48.091Z,6.57
2022-10-03T05:09:45.296Z,5.95
2022-10-03T05:12:15.500Z,9.02
2022-10-03T05:14:58.720Z,8.65
2022-10-03T05:17:37.825Z,8.85
2022-10-03T05:20:38.768Z,9.27
2022-10-03T05:23:35.840Z,8.05
2022-10-03T05:26:32.251Z,9.40
2022-10-03T05:29:00.023Z,7.72
2022-10-03T05:31:44.957Z,8.23
2022-10-03T05:34:52.811Z,7.05
2022-10-03T05:37:40.652Z,6.85
2022-10-03T05:40:27.704Z,11.55
2022-10-03T05:43:15.732Z,8.02
2022-10-03T05:46:09.288Z,10.15
2022-10-03T05:48:56.470Z,13.60
2022-10-03T05:51:39.359Z,11.63
2022-10-03T05:54:36.766Z,9.27
2022-10-03T05:57:07.230Z,10.07
2022-10-03T05:59:49.209Z,11.98
2022-10-03T06:02:40.555Z,10.55
2022-10-03T06:05:15.980Z,10.20
2022-10-03T06:08:07.502Z,9.07
2022-10-03T06:10:50.817Z,9.77
2022-10-03T06:13:41.736Z,8.07
2022-10-03T06:16:41.999Z,9.98
2022-10-03T06:19:11.517Z,13.95
2022-10-03T06:21:56.394Z,9.10
2022-10-03T06:24:25.951Z,10.38
2022-10-03T06:26:55.171Z,9.52
2022-10-03T06:29:57.671Z,12.30
2022-10-03T06:32:46.938Z,12.43
2022-10-03T06:35:47.452Z,9.73
2022-10-03T06:39:02.112Z,12.07
2022-10-03T06:42:10.066Z,10.45
2022-10-03T06:44:58.344Z,11.10
2022-10-03T06:47:51.335Z,11.20
2022-10-03T06:50:27.094Z,12.90
2022-10-03T06:53:12.073Z,12.45
2022-10-03T06:56:09.848Z,9.77
2022-10-03T06:59:15.079Z,12.38
2022-10-03T07:01:57.129Z,9.57
2022-10-03T07:04:45.422Z,10.48
2022-10-03T07:07:56.214Z,9.50
2022-10-03T07:10:45.689Z,11.52
2022-10-03T07:13:25.372Z,14.50
2022-10-03T07:16:26.872Z,16.13
2022-10-03T07:19:11.948Z,9.10
2022-10-03T07:22:09.069Z,11.90
2022-10-03T07:25:00.381Z,13.52
2022-10-03T07:27:32.976Z,10.77
2022-10-03T07:30:04.859Z,14.75
2022-10-03T07:32:49.568Z,13.13
2022-10-03T07:35:59.288Z,13.20
2022-10-03T07:38:59.502Z,14.35
2022-10-03T07:41:44.392Z,16.38
2022-10-03T07:44:51.373Z,11.07
2022-10-03T07:47:42.233Z,11.15
2022-10-03T07:50:41.067Z,11.38
2022-10-03T07:53:36.004Z,8.38
2022-10-03T07:56:34.051Z,13.10
2022-10-03T07:59:10.064Z,10.73
2022-10-03T08:02:18.273Z,9.32
2022-10-03T08:05:07.432Z,9.30
2022-10-03T08:07:49.089Z,10.40
2022-10-03T08:10:53.133Z,11.13
2022-10-03T08:14:02.742Z,11.07
2022-10-03T08:16:47.305Z,8.98
2022-10-03T08:19:34.635Z,12.10
2022-10-03T08:22:20.521Z,9.23
2022-10-03T08:27:46.345Z,11.55
2022-10-03T08:30:37.870Z,10.90
2022-10-03T08:33:19.527Z,12.15
2022-10-03T08:36:34.216Z,13.13
2022-10-03T08:39:12.190Z,9.77
2022-10-03T08:42:08.519Z,10.32
2022-10-03T08:47:10.560Z,12.85
2022-10-03T08:50:05.292Z,10.18
2022-10-03T08:52:58.471Z,10.60
2022-10-03T08:55:34.158Z,9.50
2022-10-03T08:58:22.053Z,11.88
2022-10-03T09:01:20.838Z,10.93
2022-10-03T09:03:56.165Z,12.57
2022-10-03T09:07:12.066Z,8.32
2022-10-03T09:09:58.555Z,11.35
2022-10-03T09:13:02.592Z,8.68
2022-10-03T09:15:47.537Z,10.73
2022-10-03T09:18:32.261Z,13.00
2022-10-03T09:21:17.831Z,9.23
2022-10-03T09:24:20.809Z,8.90
2022-10-03T09:26:59.264Z,11.10
2022-10-03T09:29:31.619Z,6.95
2022-10-03T09:32:32.053Z,10.57
2022-10-03T09:35:16.606Z,8.65
2022-10-03T09:37:46.028Z,11.05
2022-10-03T09:40:50.072Z,9.43
2022-10-03T09:43:50.704Z,8.93
2022-10-03T09:46:46.829Z,6.20
2022-10-03T09:51:59.153Z,8.73
2022-10-03T09:54:54.039Z,9.40
2022-10-03T09:57:48.269Z,8.38
2022-10-03T10:00:22.285Z,9.57
2022-10-03T10:03:15.490Z,10.50
2022-10-03T10:06:03.573Z,9.52
2022-10-03T10:08:38.808Z,9.95
2022-10-03T10:11:24.257Z,8.80
2022-10-03T10:14:08.825Z,9.23
2022-10-03T10:17:08.870Z,5.88
2022-10-03T10:20:03.125Z,8.20
2022-10-03T10:22:51.786Z,8.50
2022-10-03T10:25:25.592Z,6.95
2022-10-03T10:28:06.766Z,5.30
2022-10-03T10:30:58.213Z,5.03
2022-10-03T10:33:52.480Z,4.70
2022-10-03T10:36:40.825Z,5.82
2022-10-03T10:39:16.877Z,5.07
2022-10-03T10:42:03.247Z,4.55
2022-10-03T10:44:48.379Z,7.28
2022-10-03T10:48:03.858Z,8.25
2022-10-03T10:50:52.380Z,6.65
2022-10-03T10:53:55.848Z,7.88
2022-10-03T10:56:34.453Z,6.47
2022-10-03T10:59:30.986Z,6.68
2022-10-03T11:02:21.622Z,7.65
2022-10-03T11:05:07.131Z,6.03
2022-10-03T11:08:11.218Z,5.22
2022-10-03T11:10:56.052Z,6.70
2022-10-03T11:13:41.803Z,6.70
2022-10-03T11:19:26.935Z,6.10
2022-10-03T11:22:34.105Z,6.85
2022-10-03T11:25:28.453Z,8.30
2022-10-03T11:28:07.210Z,5.38
2022-10-03T11:31:13.623Z,6.82
2022-10-03T11:34:22.194Z,6.63
2022-10-03T11:37:09.721Z,6.30
2022-10-03T11:39:49.298Z,4.65
2022-10-03T11:42:27.740Z,8.55
2022-10-03T11:45:05.420Z,4.32
2022-10-03T11:47:39.787Z,4.10
2022-10-03T11:50:32.500Z,7.50
2022-10-03T11:53:11.265Z,5.15
2022-10-03T11:55:51.616Z,4.80
2022-10-03T11:58:32.322Z,6.82
2022-10-03T12:01:21.785Z,9.00
2022-10-03T12:03:59.834Z,3.60
2022-10-03T12:07:03.062Z,5.82
2022-10-03T12:09:54.652Z,8.43
2022-10-03T12:12:30.156Z,6.60
2022-10-03T12:15:15.429Z,4.70
2022-10-03T12:17:55.427Z,5.93
2022-10-03T12:20:27.183Z,6.50
2022-10-03T12:23:13.140Z,5.20
2022-10-03T12:25:43.103Z,6.07
2022-10-03T12:28:14.285Z,6.40
2022-10-03T12:31:21.993Z,5.70
2022-10-03T12:33:48.506Z,5.35
2022-10-03T12:36:20.165Z,6.70
2022-10-03T12:39:19.699Z,4.82
2022-10-03T12:42:01.475Z,4.47
2022-10-03T12:44:56.067Z,4.07
2022-10-03T12:47:55.338Z,5.53
2022-10-03T12:50:31.698Z,3.15
2022-10-03T12:53:16.418Z,4.53
2022-10-03T12:56:01.828Z,3.65
2022-10-03T12:58:49.154Z,3.92
2022-10-03T13:01:51.156Z,2.65
2022-10-03T13:04:32.931Z,4.43
2022-10-03T13:07:18.102Z,5.40
2022-10-03T13:10:01.106Z,6.68
2022-10-03T13:12:49.407Z,5.45
2022-10-03T13:15:18.836Z,7.05
2022-10-03T13:17:52.675Z,4.68
2022-10-03T13:20:22.194Z,5.05
2022-10-03T13:23:16.956Z,5.63
2022-10-03T13:25:52.856Z,3.10
2022-10-03T13:29:01.362Z,4.80
2022-10-03T13:31:34.406Z,4.63
2022-10-03T13:34:06.747Z,3.65
2022-10-03T13:36:45.844Z,5.00
2022-10-03T13:39:19.333Z,5.50
2022-10-03T13:42:10.379Z,7.40
2022-10-03T13:45:03.470Z,6.60
2022-10-03T13:47:51.989Z,6.05
2022-10-03T13:50:32.306Z,5.43
2022-10-03T13:53:25.218Z,5.75
2022-10-03T13:56:01.659Z,5.18
2022-10-03T13:58:48.820Z,4.55
2022-10-03T14:01:41.943Z,6.57
2022-10-03T14:04:37.545Z,6.05
2022-10-03T14:07:24.939Z,5.53
2022-10-03T14:10:26.360Z,5.72
2022-10-03T14:13:10.671Z,6.68
2022-10-03T14:15:55.826Z,3.42
2022-10-03T14:18:25.377Z,8.30
2022-10-03T14:21:25.455Z,4.47
2022-10-03T14:24:24.553Z,5.38
2022-10-03T14:27:03.908Z,4.65
2022-10-03T14:29:44.848Z,6.50
2022-10-03T14:32:45.625Z,5.07
2022-10-03T14:35:33.501Z,4.80
2022-10-03T14:38:18.463Z,5.38
2022-10-03T14:40:49.758Z,6.10
2022-10-03T14:43:25.365Z,4.63
2022-10-03T14:45:56.663Z,4.80
2022-10-03T14:48:40.853Z,5.40
2022-10-03T14:51:10.178Z,6.55
2022-10-03T14:53:39.695Z,5.68
2022-10-03T14:56:09.570Z,7.70
2022-10-03T14:58:44.638Z,5.72
2022-10-03T15:01:18.965Z,5.50
2022-10-03T15:04:14.235Z,4.70
2022-10-03T15:06:46.972Z,5.50
2022-10-03T15:09:20.476Z,4.72
2022-10-03T15:12:18.520Z,6.35
2022-10-03T15:14:54.182Z,4.72
2022-10-03T15:17:30.670Z,4.25
2022-10-03T15:20:00.104Z,6.43
2022-10-03T15:22:35.728Z,8.43
2022-10-03T15:25:08.606Z,5.18
2022-10-03T15:27:35.545Z,4.82
2022-10-03T15:30:05.648Z,5.07
2022-10-03T15:32:43.585Z,5.28
2022-10-03T15:35:20.511Z,4.45
2022-10-03T15:37:48.786Z,6.93
2022-10-03T15:40:30.798Z,4.50
2022-10-03T15:43:31.383Z,4.13
2022-10-03T15:46:01.279Z,5.03
2022-10-03T15:48:30.529Z,3.67
2022-10-03T15:50:58.611Z,6.20
2022-10-03T15:53:37.188Z,3.78
2022-10-03T15:56:07.314Z,5.13
2022-10-03T15:58:38.117Z,5.82
2022-10-03T16:01:13.139Z,9.20
2022-10-03T16:03:47.222Z,5.30
2022-10-03T16:06:35.965Z,6.20
2022-10-03T16:09:23.055Z,4.80
2022-10-03T16:12:20.046Z,3.60
2022-10-03T16:14:55.672Z,5.40
2022-10-03T16:17:40.705Z,3.38
2022-10-03T16:20:35.474Z,7.95
2022-10-03T16:23:24.553Z,6.60
2022-10-03T16:26:01.422Z,5.45
2022-10-03T16:28:42.084Z,5.75
2022-10-03T16:31:26.546Z,4.45
2022-10-03T16:34:16.468Z,6.07
2022-10-03T16:36:45.924Z,5.00
2022-10-03T16:39:25.045Z,5.15
2022-10-03T16:41:56.960Z,5.22
2022-10-03T16:44:46.686Z,4.22
2022-10-03T16:47:14.435Z,4.10
2022-10-03T16:50:27.006Z,4.30
2022-10-03T16:52:58.592Z,3.55
2022-10-03T16:55:28.989Z,4.55
2022-10-03T16:58:05.736Z,5.82
2022-10-03T17:00:59.444Z,7.22
2022-10-03T17:04:09.953Z,5.38
2022-10-03T17:06:39.587Z,5.07
2022-10-03T17:09:17.924Z,6.43
2022-10-03T17:11:51.394Z,5.95
2022-10-03T17:14:20.733Z,5.63
2022-10-03T17:17:04.671Z,9.40
2022-10-03T17:19:36.499Z,5.40
2022-10-03T17:22:13.953Z,6.40
2022-10-03T17:24:53.021Z,8.15
2022-10-03T17:27:28.653Z,6.40
2022-10-03T17:30:01.064Z,5.82
2022-10-03T17:32:36.185Z,6.07
2022-10-03T17:35:15.488Z,9.27
2022-10-03T17:38:24.641Z,6.60
2022-10-03T17:41:15.395Z,5.32
2022-10-03T17:43:45.725Z,6.43
2022-10-03T17:46:41.228Z,6.85
2022-10-03T17:49:11.661Z,9.35
2022-10-03T17:51:43.156Z,8.23
2022-10-03T17:54:35.746Z,7.93
2022-10-03T17:57:25.123Z,7.80
2022-10-03T18:00:00.453Z,4.82
2022-10-03T18:02:54.225Z,8.75
2022-10-03T18:05:44.468Z,5.55
2022-10-03T18:08:18.261Z,6.13
2022-10-03T18:10:50.478Z,6.65
2022-10-03T18:13:23.762Z,6.50
2022-10-03T18:16:05.461Z,5.53
2022-10-03T18:18:53.740Z,6.13
2022-10-03T18:21:26.197Z,6.93
2022-10-03T18:23:56.066Z,6.72
2022-10-03T18:26:28.417Z,6.88
2022-10-03T18:29:22.343Z,7.88
2022-10-03T18:31:59.405Z,5.57
2022-10-03T18:34:52.537Z,7.38
2022-10-03T18:37:28.164Z,6.40
2022-10-03T18:39:59.517Z,4.75
2022-10-03T18:42:28.276Z,9.07
2022-10-03T18:44:57.315Z,8.60
2022-10-03T18:47:39.384Z,6.97
2022-10-03T18:50:55.615Z,7.63
2022-10-03T18:53:38.555Z,7.87
2022-10-03T18:56:16.458Z,7.75
2022-10-03T18:58:57.021Z,9.95
2022-10-03T19:01:44.379Z,5.30
2022-10-03T19:04:18.394Z,7.68
2022-10-03T19:06:53.864Z,8.13
2022-10-03T19:12:06.446Z,8.32
2022-10-03T19:14:55.146Z,7.80
2022-10-03T19:17:52.284Z,14.02
2022-10-03T19:20:26.344Z,9.15
2022-10-03T19:23:14.073Z,9.82
2022-10-03T19:25:43.649Z,8.02
2022-10-03T19:28:28.381Z,9.57
2022-10-03T19:31:06.709Z,7.15
2022-10-03T19:33:46.624Z,10.93
2022-10-03T19:36:17.439Z,7.00
2022-10-03T19:38:46.312Z,8.18
2022-10-03T19:41:26.201Z,8.10
2022-10-03T19:43:54.092Z,10.25
2022-10-03T19:46:39.266Z,9.55
2022-10-03T19:49:43.454Z,8.68
2022-10-03T19:52:20.151Z,8.48
2022-10-03T19:54:51.862Z,7.82
2022-10-03T19:57:29.993Z,7.22
2022-10-03T20:00:03.797Z,12.48
2022-10-03T20:02:31.345Z,10.13
2022-10-03T20:04:57.931Z,11.45
2022-10-03T20:07:46.025Z,12.65
2022-10-03T20:10:12.552Z,12.77
2022-10-03T20:12:44.676Z,12.20
2022-10-03T20:15:23.360Z,12.35
2022-10-03T20:17:53.782Z,10.90
2022-10-03T20:20:23.632Z,11.70
2022-10-03T20:22:54.628Z,13.13
2022-10-03T20:25:43.375Z,10.30
2022-10-03T20:28:20.618Z,10.68
2022-10-03T20:30:52.605Z,8.55
2022-10-03T20:33:30.209Z,8.43
2022-10-03T20:36:13.824Z,8.30
2022-10-03T20:39:21.757Z,9.45
2022-10-03T20:42:18.349Z,8.55
2022-10-03T20:44:57.883Z,9.20
2022-10-03T20:47:54.662Z,10.10
2022-10-03T20:50:50.539Z,8.65
2022-10-03T20:53:22.412Z,8.90
2022-10-03T20:56:08.880Z,10.57
2022-10-03T20:58:39.538Z,12.32
2022-10-03T21:01:29.395Z,11.70
2022-10-03T21:04:22.848Z,7.97
2022-10-03T21:07:04.220Z,6.25
2022-10-03T21:10:06.006Z,7.47
2022-10-03T21:12:45.654Z,7.15
2022-10-03T21:15:31.634Z,6.55
2022-10-03T21:17:58.691Z,8.52
2022-10-03T21:20:36.241Z,5.18
2022-10-03T21:23:13.353Z,5.15
2022-10-03T21:25:43.138Z,7.07
2022-10-03T21:28:41.472Z,5.68
2022-10-03T21:31:26.776Z,7.25
2022-10-03T21:34:27.074Z,6.38
2022-10-03T21:37:06.181Z,6.28
2022-10-03T21:39:44.128Z,7.18
2022-10-03T21:42:22.341Z,5.18
2022-10-03T21:44:57.473Z,5.95
2022-10-03T21:47:47.884Z,6.03
2022-10-03T21:50:27.916Z,4.90
2022-10-03T21:53:23.871Z,5.53
2022-10-03T21:56:08.752Z,6.40
2022-10-03T21:58:38.373Z,6.57
2022-10-03T22:01:31.720Z,6.90
2022-10-03T22:04:26.488Z,7.10
2022-10-03T22:07:33.420Z,7.30
2022-10-03T22:10:00.070Z,5.53
2022-10-03T22:12:33.144Z,4.85
2022-10-03T22:15:10.509Z,4.75
2022-10-03T22:18:04.169Z,5.90
2022-10-03T22:20:33.109Z,4.93
2022-10-03T22:23:21.089Z,6.32
2022-10-03T22:26:07.207Z,5.32
2022-10-03T22:28:52.664Z,5.43
2022-10-03T22:31:37.732Z,3.75
2022-10-03T22:34:31.823Z,5.13
2022-10-03T22:36:59.819Z,6.68
2022-10-03T22:39:28.344Z,4.85
2022-10-03T22:42:00.197Z,4.47
2022-10-03T22:44:31.214Z,5.55
2022-10-03T22:47:02.703Z,6.38
2022-10-03T22:49:35.302Z,4.93
2022-10-03T22:52:05.230Z,7.85
2022-10-03T22:54:37.289Z,7.55
2022-10-03T22:57:12.706Z,7.00
